createdAt,value
2023-03-04T00:02:10.064Z,-0.72
2023-03-04T00:05:13.106Z,-0.71
2023-03-04T00:08:16.150Z,-0.71
2023-03-04T00:11:19.239Z,-0.70
2023-03-04T00:14:22.220Z,-0.71
2023-03-04T00:17:25.402Z,-0.71
2023-03-04T00:20:28.369Z,-0.70
2023-03-04T00:23:31.629Z,-0.72
2023-03-04T00:26:35.309Z,-0.72
2023-03-04T00:29:39.046Z,-0.75
2023-03-04T00:32:42.439Z,-0.78
2023-03-04T00:35:45.907Z,-0.81
2023-03-04T00:38:49.070Z,-0.84
2023-03-04T00:41:52.679Z,-0.89
2023-03-04T00:44:56.365Z,-0.96
2023-03-04T00:47:59.717Z,-1.08
2023-03-04T00:51:02.820Z,-1.22
2023-03-04T00:54:05.884Z,-1.38
2023-03-04T00:57:09.228Z,-1.54
2023-03-04T01:00:13.386Z,-1.68
2023-03-04T01:03:17.035Z,-1.83
2023-03-04T01:06:20.488Z,-1.95
2023-03-04T01:09:23.884Z,-2.08
2023-03-04T01:12:26.941Z,-2.20
2023-03-04T01:15:30.087Z,-2.32
2023-03-04T01:18:33.781Z,-2.44
2023-03-04T01:21:37.505Z,-2.51
2023-03-04T01:24:40.636Z,-2.54
2023-03-04T01:27:44.387Z,-2.61
2023-03-04T01:30:48.668Z,-2.66
2023-03-04T01:33:51.737Z,-2.71
2023-03-04T01:36:54.820Z,-2.76
2023-03-04T01:40:01.384Z,-2.81
2023-03-04T01:43:05.935Z,-2.88
2023-03-04T01:46:13.485Z,-2.93
2023-03-04T01:49:17.265Z,-2.99
2023-03-04T01:52:20.973Z,-3.03
2023-03-04T01:55:25.511Z,-3.07
2023-03-04T01:58:33.083Z,-3.11
2023-03-04T02:01:37.866Z,-3.17
2023-03-04T02:04:42.663Z,-3.25
2023-03-04T02:07:45.926Z,-3.31
2023-03-04T02:10:49.387Z,-3.35
2023-03-04T02:13:53.168Z,-3.34
2023-03-04T02:16:56.673Z,-3.35
2023-03-04T02:20:31.185Z,-3.38
2023-03-04T02:23:59.263Z,-3.40
2023-03-04T02:27:02.446Z,-3.40
2023-03-04T02:30:06.928Z,-3.38
2023-03-04T02:33:20.953Z,-3.38
2023-03-04T02:36:24.740Z,-3.30
2023-03-04T02:39:39.789Z,-3.22
2023-03-04T02:42:45.690Z,-3.27
2023-03-04T02:45:50.665Z,-3.30
2023-03-04T02:48:54.674Z,-3.34
2023-03-04T02:52:10.106Z,-3.39
2023-03-04T02:55:13.579Z,-3.44
2023-03-04T02:58:17.061Z,-3.49
2023-03-04T03:01:20.823Z,-3.54
2023-03-04T03:04:25.745Z,-3.60
2023-03-04T03:07:28.990Z,-3.64
2023-03-04T03:10:32.664Z,-3.68
2023-03-04T03:13:35.618Z,-3.72
2023-03-04T03:16:38.729Z,-3.72
2023-03-04T03:19:41.874Z,-3.69
2023-03-04T03:22:45.177Z,-3.66
2023-03-04T03:25:48.727Z,-3.63
2023-03-04T03:28:51.870Z,-3.58
2023-03-04T03:31:57.037Z,-3.56
2023-03-04T03:35:00.141Z,-3.53
2023-03-04T03:38:03.123Z,-3.51
2023-03-04T03:41:06.274Z,-3.49
2023-03-04T03:44:09.385Z,-3.50
2023-03-04T03:47:12.950Z,-3.53
2023-03-04T03:50:16.419Z,-3.55
2023-03-04T03:53:20.402Z,-3.59
2023-03-04T03:56:23.418Z,-3.62
2023-03-04T03:59:26.561Z,-3.66
2023-03-04T04:02:29.813Z,-3.70
2023-03-04T04:05:33.034Z,-3.73
2023-03-04T04:08:36.086Z,-3.79
2023-03-04T04:11:39.330Z,-3.80
2023-03-04T04:14:43.008Z,-3.79
2023-03-04T04:17:46.149Z,-3.80
2023-03-04T04:20:49.448Z,-3.79
2023-03-04T04:23:52.512Z,-3.80
2023-03-04T04:26:55.586Z,-3.79
2023-03-04T04:29:59.083Z,-3.80
2023-03-04T04:33:04.938Z,-3.82
2023-03-04T04:36:13.630Z,-3.82
2023-03-04T04:39:16.790Z,-3.79
2023-03-04T04:42:20.024Z,-3.75
2023-03-04T04:45:25.036Z,-3.75
2023-03-04T04:48:29.073Z,-3.76
2023-03-04T04:51:33.101Z,-3.79
2023-03-04T04:54:36.183Z,-3.79
2023-03-04T04:57:39.390Z,-3.79
2023-03-04T05:00:42.585Z,-3.80
2023-03-04T05:03:45.750Z,-3.64
2023-03-04T05:06:48.805Z,-3.30
2023-03-04T05:09:51.798Z,-3.11
2023-03-04T05:12:54.896Z,-2.91
2023-03-04T05:15:58.519Z,-2.77
2023-03-04T05:19:01.609Z,-2.74
2023-03-04T05:22:04.963Z,-2.66
2023-03-04T05:25:09.494Z,-2.48
2023-03-04T05:28:13.252Z,-2.50
2023-03-04T05:31:18.395Z,-2.56
2023-03-04T05:34:21.644Z,-2.53
2023-03-04T05:37:24.789Z,-2.46
2023-03-04T05:40:27.852Z,-2.43
2023-03-04T05:43:35.213Z,-2.40
2023-03-04T05:46:38.974Z,-2.32
2023-03-04T05:49:42.813Z,-2.19
2023-03-04T05:52:46.060Z,-1.98
2023-03-04T05:55:49.732Z,-1.83
2023-03-04T05:58:52.913Z,-1.66
2023-03-04T06:01:56.118Z,-1.51
2023-03-04T06:04:59.414Z,-1.30
2023-03-04T06:08:03.120Z,-1.02
2023-03-04T06:11:06.830Z,-0.84
2023-03-04T06:14:10.129Z,-0.73
2023-03-04T06:17:13.823Z,-0.65
2023-03-04T06:20:16.906Z,-0.57
2023-03-04T06:23:20.021Z,-0.43
2023-03-04T06:26:22.984Z,-0.36
2023-03-04T06:29:26.355Z,-0.22
2023-03-04T06:32:29.949Z,-0.05
2023-03-04T06:35:33.730Z,-0.02
2023-03-04T06:38:36.874Z,-0.08
2023-03-04T06:41:41.141Z,-0.09
2023-03-04T06:44:44.357Z,0.15
2023-03-04T06:47:47.560Z,0.33
2023-03-04T06:50:50.703Z,0.32
2023-03-04T06:53:54.235Z,0.36
2023-03-04T06:56:57.593Z,0.23
2023-03-04T07:00:00.727Z,0.06
2023-03-04T07:03:04.011Z,-0.07
2023-03-04T07:06:09.745Z,-0.15
2023-03-04T07:09:13.304Z,-0.18
2023-03-04T07:12:16.855Z,-0.18
2023-03-04T07:15:19.903Z,-0.13
2023-03-04T07:18:22.799Z,-0.09
2023-03-04T07:21:25.956Z,-0.08
2023-03-04T07:24:29.203Z,-0.10
2023-03-04T07:27:32.153Z,-0.15
2023-03-04T07:30:35.109Z,-0.17
2023-03-04T07:33:38.442Z,-0.19
2023-03-04T07:36:42.351Z,-0.19
2023-03-04T07:39:45.950Z,-0.15
2023-03-04T07:42:56.060Z,-0.12
2023-03-04T07:46:01.730Z,-0.07
2023-03-04T07:49:04.795Z,-0.07
2023-03-04T07:52:08.943Z,-0.09
2023-03-04T07:55:14.541Z,-0.05
2023-03-04T07:58:20.149Z,0.16
2023-03-04T08:01:28.675Z,0.36
2023-03-04T08:04:32.348Z,0.58
2023-03-04T08:07:35.907Z,0.81
2023-03-04T08:10:39.972Z,0.94
2023-03-04T08:13:43.454Z,0.99
2023-03-04T08:16:46.492Z,1.04
2023-03-04T08:19:49.457Z,1.12
2023-03-04T08:22:52.570Z,1.11
2023-03-04T08:25:55.678Z,1.15
2023-03-04T08:29:00.978Z,1.22
2023-03-04T08:32:04.565Z,1.31
2023-03-04T08:35:08.026Z,1.42
2023-03-04T08:38:11.207Z,1.49
2023-03-04T08:41:15.740Z,1.50
2023-03-04T08:44:19.448Z,1.43
2023-03-04T08:47:22.776Z,1.38
2023-03-04T08:50:27.758Z,1.47
2023-03-04T08:53:31.167Z,1.35
2023-03-04T08:56:34.488Z,1.36
2023-03-04T08:59:38.538Z,1.36
2023-03-04T09:02:42.080Z,1.28
2023-03-04T09:05:48.291Z,1.27
2023-03-04T09:08:58.053Z,1.26
2023-03-04T09:12:02.176Z,1.21
2023-03-04T09:15:11.625Z,1.15
2023-03-04T09:18:18.206Z,1.10
2023-03-04T09:21:21.833Z,1.06
2023-03-04T09:24:26.729Z,0.99
2023-03-04T09:27:30.496Z,0.88
2023-03-04T09:30:35.221Z,0.73
2023-03-04T09:33:38.986Z,0.55
2023-03-04T09:36:42.022Z,0.49
2023-03-04T09:40:05.057Z,0.50
2023-03-04T09:43:30.391Z,0.33
2023-03-04T09:46:40.628Z,0.18
2023-03-04T09:50:02.873Z,0.12
2023-03-04T09:57:26.214Z,0.35
2023-03-04T10:00:47.139Z,0.82
2023-03-04T10:03:55.919Z,1.29
2023-03-04T10:07:06.484Z,1.67
2023-03-04T10:10:53.299Z,2.11
2023-03-04T10:14:51.017Z,2.67
2023-03-04T10:18:07.171Z,3.38
2023-03-04T10:21:35.420Z,3.77
2023-03-04T10:24:39.449Z,4.15
2023-03-04T10:27:44.704Z,4.21
2023-03-04T10:31:12.295Z,4.27
2023-03-04T10:34:17.626Z,4.40
2023-03-04T10:37:20.976Z,4.52
2023-03-04T10:40:26.370Z,4.77
2023-03-04T10:43:30.513Z,4.82
2023-03-04T10:46:33.549Z,4.78
2023-03-04T10:49:52.684Z,4.94
2023-03-04T10:52:57.628Z,4.99
2023-03-04T10:56:01.060Z,4.86
2023-03-04T10:59:40.660Z,5.04
2023-03-04T11:02:45.855Z,5.59
2023-03-04T11:05:51.832Z,5.93
2023-03-04T11:08:59.949Z,6.28
2023-03-04T11:12:30.175Z,6.81
2023-03-04T11:15:51.613Z,6.88
2023-03-04T11:19:00.708Z,6.23
2023-03-04T11:22:04.528Z,5.76
2023-03-04T11:25:26.594Z,5.34
2023-03-04T11:29:08.861Z,5.03
2023-03-04T11:32:24.157Z,5.33
2023-03-04T11:35:35.618Z,5.19
2023-03-04T11:38:44.692Z,5.03
2023-03-04T11:42:16.820Z,4.93
2023-03-04T11:45:43.767Z,4.85
2023-03-04T11:49:18.594Z,4.75
2023-03-04T11:52:39.818Z,4.72
2023-03-04T11:56:04.619Z,4.76
2023-03-04T11:59:16.426Z,4.75
2023-03-04T12:02:29.973Z,4.67
2023-03-04T12:05:44.876Z,4.58
2023-03-04T12:09:24.508Z,4.53
2023-03-04T12:12:35.557Z,4.59
2023-03-04T12:16:11.440Z,4.71
2023-03-04T12:19:35.055Z,4.76
2023-03-04T12:22:43.769Z,4.85
2023-03-04T12:26:11.732Z,5.03
2023-03-04T12:29:49.833Z,5.12
2023-03-04T12:33:10.350Z,5.25
2023-03-04T12:36:41.656Z,5.38
2023-03-04T12:43:49.760Z,5.55
2023-03-04T12:47:49.636Z,5.60
2023-03-04T12:52:19.545Z,5.58
2023-03-04T12:56:12.565Z,5.43
2023-03-04T12:59:25.297Z,5.32
2023-03-04T13:03:18.225Z,5.19
2023-03-04T13:06:48.202Z,5.12
2023-03-04T13:10:11.061Z,5.02
2023-03-04T13:13:51.798Z,4.81
2023-03-04T13:18:17.026Z,4.81
2023-03-04T13:22:03.853Z,4.85
2023-03-04T13:25:56.799Z,4.82
2023-03-04T13:33:21.793Z,4.43
2023-03-04T13:36:56.541Z,4.20
2023-03-04T13:40:23.723Z,4.11
2023-03-04T13:43:52.774Z,4.04
2023-03-04T13:47:10.837Z,3.97
2023-03-04T13:51:00.756Z,3.80
2023-03-04T13:54:53.779Z,3.70
2023-03-04T13:58:43.738Z,3.56
2023-03-04T14:02:39.764Z,3.54
2023-03-04T14:07:09.328Z,3.36
2023-03-04T14:13:47.340Z,3.19
2023-03-04T14:17:51.356Z,3.08
2023-03-04T14:21:13.313Z,2.97
2023-03-04T14:25:28.237Z,2.84
2023-03-04T14:29:06.294Z,2.72
2023-03-04T14:33:12.213Z,2.68
2023-03-04T14:37:05.333Z,2.64
2023-03-04T14:41:23.218Z,2.60
2023-03-04T14:48:57.085Z,2.46
2023-03-04T14:53:01.407Z,2.36
2023-03-04T15:04:14.435Z,2.16
2023-03-04T15:07:50.555Z,2.13
2023-03-04T15:11:48.008Z,2.10
2023-03-04T15:15:56.754Z,2.09
2023-03-04T15:19:45.559Z,2.07
2023-03-04T15:27:15.251Z,2.02
2023-03-04T15:30:47.356Z,1.99
2023-03-04T15:37:49.219Z,1.93
2023-03-04T15:41:17.211Z,1.91
2023-03-04T15:44:50.340Z,1.92
2023-03-04T15:48:24.847Z,1.91
2023-03-04T15:55:45.031Z,1.93
2023-03-04T16:03:12.972Z,1.99
2023-03-04T16:06:46.352Z,1.98
2023-03-04T16:10:55.211Z,1.98
2023-03-04T16:14:30.223Z,1.96
2023-03-04T16:18:24.234Z,1.97
2023-03-04T16:22:18.189Z,1.99
2023-03-04T16:25:58.392Z,1.99
2023-03-04T16:29:35.181Z,1.98
2023-03-04T16:33:10.177Z,1.94
2023-03-04T16:36:45.215Z,1.90
2023-03-04T16:40:20.211Z,1.85
2023-03-04T16:44:12.784Z,1.86
2023-03-04T16:51:49.002Z,1.78
2023-03-04T16:55:00.389Z,1.76
2023-03-04T16:58:03.828Z,1.74
2023-03-04T17:01:14.528Z,1.72
2023-03-04T17:04:17.560Z,1.71
2023-03-04T17:07:20.563Z,1.70
2023-03-04T17:10:24.816Z,1.68
2023-03-04T17:13:32.301Z,1.68
2023-03-04T17:16:36.220Z,1.68
2023-03-04T17:19:45.250Z,1.73
2023-03-04T17:23:21.029Z,1.80
2023-03-04T17:26:25.803Z,1.85
2023-03-04T17:29:30.941Z,1.89
2023-03-04T17:32:56.227Z,1.92
2023-03-04T17:36:03.334Z,1.94
2023-03-04T17:39:11.936Z,1.97
2023-03-04T17:42:16.930Z,2.02
2023-03-04T17:45:30.191Z,2.05
2023-03-04T17:48:41.669Z,2.05
2023-03-04T17:52:17.590Z,1.99
2023-03-04T17:55:23.408Z,1.94
2023-03-04T17:58:48.815Z,1.92
2023-03-04T18:02:16.365Z,1.90
2023-03-04T18:05:24.652Z,1.89
2023-03-04T18:08:53.396Z,1.89
2023-03-04T18:12:19.944Z,1.91
2023-03-04T18:15:25.467Z,1.93
2023-03-04T18:18:31.545Z,1.97
2023-03-04T18:21:36.200Z,1.99
2023-03-04T18:24:42.254Z,2.01
2023-03-04T18:27:47.356Z,2.01
2023-03-04T18:30:51.892Z,2.01
2023-03-04T18:33:55.706Z,2.02
2023-03-04T18:36:59.306Z,2.01
2023-03-04T18:40:04.662Z,2.01
2023-03-04T18:43:10.737Z,2.02
2023-03-04T18:46:40.317Z,2.06
2023-03-04T18:49:46.125Z,2.20
2023-03-04T18:52:52.823Z,2.20
2023-03-04T18:56:03.249Z,2.19
2023-03-04T18:59:25.284Z,2.19
2023-03-04T19:02:52.358Z,2.20
2023-03-04T19:05:55.646Z,2.19
2023-03-04T19:08:59.244Z,2.20
2023-03-04T19:12:06.540Z,2.19
2023-03-04T19:15:10.419Z,2.19
2023-03-04T19:18:13.482Z,2.21
2023-03-04T19:21:18.158Z,2.21
2023-03-04T19:24:21.402Z,2.21
2023-03-04T19:27:25.026Z,2.21
2023-03-04T19:30:28.840Z,2.22
2023-03-04T19:33:32.839Z,2.21
2023-03-04T19:36:37.523Z,2.22
2023-03-04T19:39:43.631Z,2.22
2023-03-04T19:42:47.504Z,2.20
2023-03-04T19:45:56.221Z,2.19
2023-03-04T19:49:03.504Z,2.17
2023-03-04T19:52:09.303Z,2.15
2023-03-04T19:55:16.666Z,2.12
2023-03-04T19:58:21.501Z,2.08
2023-03-04T20:01:46.099Z,2.05
2023-03-04T20:05:31.953Z,2.02
2023-03-04T20:09:49.892Z,1.98
2023-03-04T20:13:58.083Z,1.95
2023-03-04T20:18:41.886Z,1.91
2023-03-04T20:22:17.978Z,1.87
2023-03-04T20:34:30.894Z,1.86
2023-03-04T20:38:08.137Z,1.85
2023-03-04T20:42:07.058Z,1.83
2023-03-04T20:46:01.451Z,1.82
2023-03-04T20:50:05.364Z,1.81
2023-03-04T20:57:37.185Z,1.79
2023-03-04T21:01:26.462Z,1.78
2023-03-04T21:05:19.050Z,1.78
2023-03-04T21:12:17.906Z,1.79
2023-03-04T21:15:44.971Z,1.82
2023-03-04T21:27:02.888Z,1.93
2023-03-04T21:30:29.857Z,1.94
2023-03-04T21:34:12.877Z,1.95
2023-03-04T21:37:53.490Z,1.94
2023-03-04T21:41:33.865Z,1.95
2023-03-04T21:48:52.082Z,1.96
2023-03-04T22:03:10.383Z,2.04
2023-03-04T22:10:35.432Z,2.05
2023-03-04T22:14:15.913Z,2.00
2023-03-04T22:18:08.463Z,1.97
2023-03-04T22:21:50.852Z,1.95
2023-03-04T22:25:59.542Z,1.95
2023-03-04T22:29:34.841Z,1.95
2023-03-04T22:36:44.095Z,1.92
2023-03-04T22:48:53.686Z,1.84
2023-03-04T22:52:34.200Z,1.87
2023-03-04T22:56:28.360Z,1.85
2023-03-04T23:00:14.614Z,1.84
2023-03-04T23:04:00.687Z,1.83
2023-03-04T23:07:39.160Z,1.81
2023-03-04T23:11:26.725Z,1.80
2023-03-04T23:15:07.175Z,1.81
2023-03-04T23:18:39.179Z,1.83
2023-03-04T23:22:30.149Z,1.87
2023-03-04T23:26:10.227Z,1.91
2023-03-04T23:29:51.124Z,1.95
2023-03-04T23:33:44.566Z,1.97
2023-03-04T23:41:01.106Z,2.04
2023-03-04T23:44:43.151Z,2.07
2023-03-04T23:48:38.925Z,2.08
2023-03-04T23:52:45.445Z,2.07
2023-03-04T23:59:57.116Z,2.13
